Time;durP1;ratioP1;P1;durP2;ratioP2;P2;SDS_P1;SDS_P2;PMS_P1;PMS_P2;Temp;Humidity;BMP_temperature;BMP_pressure;BME280_temperature;BME280_humidity;BME280_pressure;Samples;Min_cycle;Max_cycle;Signal;HPM_P1;HPM_P2
2023/08/23 00:01:09;;;;;;;12.88;6.90;;;17.80;83.60;;;;;;4983111;28;20354;-78
2023/08/23 00:03:36;;;;;;;11.65;7.50;;;17.80;83.70;;;;;;4951997;28;20533;-77
2023/08/23 00:06:02;;;;;;;11.25;8.00;;;17.80;83.80;;;;;;4965909;28;20481;-76
2023/08/23 00:08:27;;;;;;;11.40;7.80;;;17.80;83.90;;;;;;4954380;28;20043;-78
2023/08/23 00:10:54;;;;;;;11.13;7.30;;;17.70;84.00;;;;;;4946581;28;20023;-77
2023/08/23 00:13:21;;;;;;;11.02;7.97;;;17.70;84.00;;;;;;4943423;28;20135;-78
2023/08/23 00:15:46;;;;;;;13.63;7.22;;;17.70;84.10;;;;;;4946422;28;20036;-78
2023/08/23 00:18:12;;;;;;;13.00;8.20;;;17.70;84.10;;;;;;4945468;28;20047;-77
2023/08/23 00:20:38;;;;;;;12.02;8.70;;;17.60;83.90;;;;;;4941090;28;20134;-77
2023/08/23 00:23:04;;;;;;;9.93;7.22;;;17.50;83.90;;;;;;4949184;28;20416;-77
2023/08/23 00:25:29;;;;;;;10.32;6.97;;;17.50;84.00;;;;;;4972569;28;20020;-77
2023/08/23 00:27:55;;;;;;;10.57;7.63;;;17.40;84.10;;;;;;4954683;28;20096;-77
2023/08/23 00:30:21;;;;;;;10.95;7.90;;;17.40;84.30;;;;;;4964941;28;20046;-77
2023/08/23 00:32:46;;;;;;;13.15;8.45;;;17.30;84.30;;;;;;4973233;27;20044;-77
2023/08/23 00:35:12;;;;;;;10.65;8.18;;;17.30;84.50;;;;;;4993599;28;20027;-77
2023/08/23 00:37:38;;;;;;;12.13;8.35;;;17.30;84.50;;;;;;4974251;28;20136;-77
2023/08/23 00:40:05;;;;;;;10.85;8.20;;;17.30;84.60;;;;;;4967409;28;20058;-76
2023/08/23 00:42:31;;;;;;;10.65;8.15;;;17.30;84.70;;;;;;4949729;28;20052;-77
2023/08/23 00:44:57;;;;;;;16.48;8.43;;;17.20;84.80;;;;;;4948081;28;20031;-77
2023/08/23 00:47:22;;;;;;;13.45;8.80;;;17.10;84.90;;;;;;4949652;28;20059;-77
2023/08/23 00:49:48;;;;;;;13.38;8.45;;;17.10;84.90;;;;;;4961900;28;20020;-76
2023/08/23 00:52:15;;;;;;;11.70;8.45;;;17.10;85.10;;;;;;4950385;28;20044;-77
2023/08/23 00:54:41;;;;;;;10.25;8.65;;;17.00;85.00;;;;;;4958452;28;20031;-76
2023/08/23 00:57:07;;;;;;;13.80;9.45;;;17.00;84.90;;;;;;4964614;28;20066;-77
2023/08/23 00:59:35;;;;;;;11.65;8.90;;;17.00;85.00;;;;;;4958597;28;20055;-77
2023/08/23 01:02:01;;;;;;;14.60;10.65;;;17.00;85.00;;;;;;4978187;28;20036;-77
2023/08/23 01:04:27;;;;;;;16.10;11.38;;;16.80;84.90;;;;;;4948694;28;20046;-77
2023/08/23 01:07:12;;;;;;;14.27;9.18;;;16.80;85.20;;;;;;4950044;28;20424;-77
2023/08/23 01:10:12;;;;;;;13.55;9.80;;;16.80;85.40;;;;;;4939401;28;20058;-76
2023/08/23 01:12:49;;;;;;;15.90;9.82;;;16.80;85.40;;;;;;4946432;28;20043;-77
2023/08/23 01:15:18;;;;;;;15.93;10.45;;;16.80;85.40;;;;;;4945351;28;20389;-77
2023/08/23 01:17:45;;;;;;;12.77;9.70;;;16.70;85.40;;;;;;4946418;28;20122;-77
2023/08/23 01:20:12;;;;;;;14.27;9.70;;;16.80;85.40;;;;;;4948842;28;20027;-77
2023/08/23 01:22:57;;;;;;;11.90;8.85;;;16.70;85.50;;;;;;4942834;28;20119;-77
2023/08/23 01:25:23;;;;;;;12.75;9.60;;;16.70;85.40;;;;;;4948908;28;20180;-77
2023/08/23 01:27:49;;;;;;;12.05;8.60;;;16.70;85.40;;;;;;4951519;28;20449;-77
2023/08/23 01:30:17;;;;;;;12.25;9.23;;;16.60;85.30;;;;;;4964343;28;20098;-77
2023/08/23 01:33:03;;;;;;;11.82;9.30;;;16.60;85.30;;;;;;4955673;28;20676;-77
2023/08/23 01:36:00;;;;;;;12.88;8.68;;;16.60;85.30;;;;;;4946822;28;20094;-77
2023/08/23 01:38:26;;;;;;;12.02;8.23;;;16.60;85.40;;;;;;4943061;28;20059;-77
2023/08/23 01:40:55;;;;;;;10.00;7.97;;;16.60;85.30;;;;;;4942192;28;20027;-76
2023/08/23 01:43:21;;;;;;;12.25;8.52;;;16.50;85.30;;;;;;4933272;28;20083;-77
2023/08/23 01:45:47;;;;;;;11.82;7.90;;;16.50;85.30;;;;;;4941837;28;20039;-76
2023/08/23 01:48:12;;;;;;;12.15;8.10;;;16.50;85.20;;;;;;4947580;28;20406;-77
2023/08/23 01:50:39;;;;;;;9.65;7.18;;;16.50;85.30;;;;;;4947952;28;20059;-77
2023/08/23 01:53:05;;;;;;;12.48;8.18;;;16.40;85.30;;;;;;4949685;28;20059;-77
2023/08/23 01:55:30;;;;;;;11.30;7.72;;;16.30;85.30;;;;;;4955992;28;20039;-78
2023/08/23 01:57:57;;;;;;;10.45;6.90;;;16.40;85.50;;;;;;4949789;28;20043;-77
2023/08/23 02:00:23;;;;;;;10.85;6.95;;;16.30;85.50;;;;;;4941381;28;20034;-77
2023/08/23 02:02:49;;;;;;;11.75;7.95;;;16.30;85.40;;;;;;4957994;28;20047;-76
2023/08/23 02:05:14;;;;;;;13.07;7.80;;;16.30;85.50;;;;;;4947072;28;20433;-78
2023/08/23 02:07:40;;;;;;;11.43;8.00;;;16.30;85.60;;;;;;4949043;28;20050;-77
2023/08/23 02:10:06;;;;;;;13.68;7.93;;;16.30;85.40;;;;;;4953397;28;20047;-77
2023/08/23 02:12:32;;;;;;;12.52;7.28;;;16.20;85.50;;;;;;4950196;28;20039;-77
2023/08/23 02:14:57;;;;;;;12.15;7.85;;;16.20;85.60;;;;;;4949337;28;20092;-77
2023/08/23 02:17:23;;;;;;;11.10;7.25;;;16.20;85.40;;;;;;4947698;28;20043;-78
2023/08/23 02:19:49;;;;;;;12.23;7.72;;;16.10;85.30;;;;;;4954741;28;20037;-77
2023/08/23 02:22:14;;;;;;;11.07;8.30;;;16.10;85.40;;;;;;4958059;28;20035;-77
2023/08/23 02:24:40;;;;;;;12.45;7.07;;;16.10;85.50;;;;;;4960201;28;20043;-77
2023/08/23 02:27:06;;;;;;;11.10;8.00;;;16.10;85.70;;;;;;4959584;28;20173;-76
2023/08/23 02:29:31;;;;;;;12.77;7.65;;;16.10;85.80;;;;;;4967790;28;20123;-75
2023/08/23 02:31:57;;;;;;;11.30;7.53;;;16.10;85.70;;;;;;4966774;28;20116;-76
2023/08/23 02:34:23;;;;;;;13.35;8.77;;;16.00;85.70;;;;;;5037624;28;20390;-76
2023/08/23 02:36:49;;;;;;;12.27;7.50;;;16.10;85.80;;;;;;5035635;28;20095;-76
2023/08/23 02:39:14;;;;;;;11.60;7.80;;;16.10;85.70;;;;;;4953647;28;20043;-76
2023/08/23 02:41:40;;;;;;;12.30;7.43;;;16.00;85.60;;;;;;4948748;28;20488;-76
2023/08/23 02:44:06;;;;;;;12.43;8.00;;;16.00;85.40;;;;;;4948467;28;20035;-76
2023/08/23 02:46:31;;;;;;;12.05;8.18;;;15.90;85.40;;;;;;4945586;28;20023;-76
2023/08/23 02:48:57;;;;;;;14.88;8.32;;;15.90;85.30;;;;;;4951241;28;20093;-76
2023/08/23 02:51:23;;;;;;;11.90;8.27;;;15.80;85.30;;;;;;4947995;28;20032;-76
2023/08/23 02:53:48;;;;;;;13.10;8.85;;;15.90;85.40;;;;;;4946435;28;20054;-76
2023/08/23 02:56:14;;;;;;;14.80;8.32;;;15.80;85.40;;;;;;4950286;28;20551;-76
2023/08/23 02:58:39;;;;;;;12.52;8.05;;;15.80;85.20;;;;;;4953241;28;20143;-76
2023/08/23 03:01:06;;;;;;;13.05;8.70;;;15.80;85.30;;;;;;4944883;28;20015;-76
2023/08/23 03:03:31;;;;;;;13.25;8.57;;;15.70;85.20;;;;;;4941673;28;20477;-78
2023/08/23 03:05:58;;;;;;;11.63;8.13;;;15.70;85.50;;;;;;4949936;28;20028;-78
2023/08/23 03:08:24;;;;;;;11.93;8.18;;;15.70;85.60;;;;;;4957281;28;20049;-78
2023/08/23 03:10:50;;;;;;;15.93;8.85;;;15.70;85.80;;;;;;4953153;28;20058;-77
2023/08/23 03:13:16;;;;;;;11.60;9.07;;;15.70;85.70;;;;;;4961024;28;20118;-77
2023/08/23 03:15:42;;;;;;;15.35;8.75;;;15.70;85.90;;;;;;4960218;28;20104;-77
2023/08/23 03:18:08;;;;;;;12.48;8.40;;;15.70;85.90;;;;;;4949384;28;20495;-77
2023/08/23 03:20:33;;;;;;;13.43;8.35;;;15.70;85.80;;;;;;4977868;28;20077;-78
2023/08/23 03:22:59;;;;;;;10.93;8.18;;;15.70;85.70;;;;;;4947404;28;20398;-78
2023/08/23 03:25:25;;;;;;;10.88;8.23;;;15.60;85.80;;;;;;4943847;28;20080;-77
2023/08/23 03:27:54;;;;;;;14.35;8.85;;;15.60;85.90;;;;;;4949166;28;20173;-77
2023/08/23 03:30:20;;;;;;;12.65;8.85;;;15.60;85.90;;;;;;4961279;28;20047;-77
2023/08/23 03:32:46;;;;;;;15.23;9.70;;;15.60;86.00;;;;;;4996911;28;20062;-77
2023/08/23 03:35:11;;;;;;;15.77;9.90;;;15.60;86.30;;;;;;4960850;28;20120;-77
2023/08/23 03:37:37;;;;;;;12.65;9.38;;;15.60;86.40;;;;;;4962328;28;21621;-77
2023/08/23 03:40:03;;;;;;;12.52;9.07;;;15.60;86.50;;;;;;4942479;28;20146;-78
2023/08/23 03:42:29;;;;;;;14.38;9.63;;;15.60;86.60;;;;;;4944147;28;20444;-76
2023/08/23 03:44:55;;;;;;;12.85;9.90;;;15.60;86.60;;;;;;4958343;28;20027;-78
2023/08/23 03:47:21;;;;;;;14.90;9.70;;;15.60;86.50;;;;;;4958933;28;20070;-78
2023/08/23 03:49:48;;;;;;;13.98;9.32;;;15.70;86.50;;;;;;4947821;28;20051;-77
2023/08/23 03:52:14;;;;;;;13.00;8.88;;;15.60;86.50;;;;;;4949207;28;20062;-77
2023/08/23 03:54:39;;;;;;;12.82;8.68;;;15.60;86.30;;;;;;4958208;28;20452;-77
2023/08/23 03:57:05;;;;;;;19.00;9.32;;;15.60;86.30;;;;;;4969148;28;20149;-77
2023/08/23 03:59:31;;;;;;;14.52;10.18;;;15.60;86.30;;;;;;4956458;28;20101;-77
2023/08/23 04:01:56;;;;;;;16.33;9.82;;;15.60;86.20;;;;;;4972843;28;20553;-77
2023/08/23 04:04:22;;;;;;;15.00;10.45;;;15.60;86.00;;;;;;4968803;28;20043;-77
2023/08/23 04:06:48;;;;;;;14.43;9.68;;;15.50;86.00;;;;;;4959886;28;20179;-77
2023/08/23 04:09:14;;;;;;;16.75;9.90;;;15.50;86.00;;;;;;4967158;28;20034;-77
2023/08/23 04:11:40;;;;;;;15.30;9.70;;;15.40;86.00;;;;;;4970603;28;20106;-77
2023/08/23 04:14:06;;;;;;;13.30;9.23;;;15.40;86.00;;;;;;4971127;28;20038;-79
2023/08/23 04:16:32;;;;;;;15.23;9.20;;;15.40;86.10;;;;;;4978012;28;20498;-77
2023/08/23 04:18:58;;;;;;;13.60;9.80;;;15.30;85.90;;;;;;4970284;28;20141;-77
2023/08/23 04:21:24;;;;;;;15.00;10.05;;;15.30;86.10;;;;;;4966828;28;20102;-78
2023/08/23 04:23:51;;;;;;;15.52;10.30;;;15.30;86.20;;;;;;4938364;28;20126;-77
2023/08/23 04:26:17;;;;;;;15.27;10.60;;;15.30;86.30;;;;;;4947090;29;20048;-77
2023/08/23 04:28:42;;;;;;;15.15;9.63;;;15.30;86.40;;;;;;4948495;28;20051;-78
2023/08/23 04:31:08;;;;;;;13.23;9.65;;;15.20;86.40;;;;;;4969162;28;20027;-77
2023/08/23 04:33:37;;;;;;;14.27;10.05;;;15.20;86.30;;;;;;4962966;28;20173;-78
2023/08/23 04:36:04;;;;;;;13.30;10.05;;;15.30;86.40;;;;;;4950484;28;20473;-77
2023/08/23 04:38:29;;;;;;;15.05;10.07;;;15.20;86.40;;;;;;4953017;28;20561;-77
2023/08/23 04:41:05;;;;;;;13.73;9.27;;;15.20;86.40;;;;;;4972134;28;20038;-78
2023/08/23 04:43:31;;;;;;;14.48;9.90;;;15.20;86.40;;;;;;4977395;28;20121;-77
2023/08/23 04:45:58;;;;;;;13.63;9.73;;;15.20;86.40;;;;;;4945628;28;20098;-77
2023/08/23 04:48:23;;;;;;;12.73;9.75;;;15.20;86.40;;;;;;4960893;28;20047;-77
2023/08/23 04:50:56;;;;;;;16.83;10.45;;;15.30;86.40;;;;;;4954606;28;20070;-77
2023/08/23 04:53:23;;;;;;;15.60;10.45;;;15.30;86.40;;;;;;4948414;28;20539;-78
2023/08/23 04:55:49;;;;;;;13.00;9.13;;;15.30;86.50;;;;;;4950043;28;20043;-77
2023/08/23 04:58:15;;;;;;;16.38;9.93;;;15.30;86.50;;;;;;4959254;28;20034;-77
2023/08/23 05:00:41;;;;;;;17.63;10.63;;;15.30;86.40;;;;;;4949476;28;20028;-79
2023/08/23 05:03:06;;;;;;;11.93;9.07;;;15.40;86.40;;;;;;4945545;28;20038;-77
2023/08/23 05:05:34;;;;;;;13.05;9.13;;;15.40;86.30;;;;;;4945105;28;20062;-77
2023/08/23 05:08:00;;;;;;;15.50;9.75;;;15.40;86.30;;;;;;4946676;28;20085;-77
2023/08/23 05:10:25;;;;;;;15.27;10.05;;;15.50;86.20;;;;;;4950150;29;20069;-77
2023/08/23 05:12:52;;;;;;;13.57;9.95;;;15.50;86.10;;;;;;4941990;28;20057;-77
2023/08/23 05:15:17;;;;;;;16.25;11.18;;;15.50;86.10;;;;;;4944390;28;20032;-77
2023/08/23 05:17:43;;;;;;;16.85;10.00;;;15.60;86.10;;;;;;4953071;28;20039;-77
2023/08/23 05:20:09;;;;;;;16.50;9.93;;;15.60;86.00;;;;;;5008233;28;20034;-77
2023/08/23 05:22:35;;;;;;;14.05;9.52;;;15.60;85.90;;;;;;4972259;28;20118;-77
2023/08/23 05:25:01;;;;;;;15.45;10.35;;;15.60;85.90;;;;;;4971400;28;20023;-77
2023/08/23 05:27:27;;;;;;;14.05;9.55;;;15.60;85.80;;;;;;4963751;28;20051;-77
2023/08/23 05:29:53;;;;;;;13.77;10.50;;;15.70;85.70;;;;;;4955429;28;20374;-77
2023/08/23 05:32:18;;;;;;;15.90;9.98;;;15.80;85.60;;;;;;4943823;28;20043;-78
2023/08/23 05:34:44;;;;;;;18.17;11.13;;;15.80;85.60;;;;;;4944477;28;20105;-78
2023/08/23 05:37:09;;;;;;;18.50;10.57;;;15.80;85.50;;;;;;4940271;28;20039;-78
2023/08/23 05:39:35;;;;;;;15.07;8.98;;;15.90;85.60;;;;;;4952258;28;20484;-78
2023/08/23 05:42:01;;;;;;;15.32;8.85;;;15.90;85.80;;;;;;4950018;28;20125;-77
2023/08/23 05:44:26;;;;;;;15.43;9.90;;;16.00;85.70;;;;;;4960386;28;20070;-77
2023/08/23 05:46:52;;;;;;;14.30;9.18;;;16.00;85.90;;;;;;4943898;28;20115;-77
2023/08/23 05:49:18;;;;;;;19.05;11.35;;;16.10;85.80;;;;;;4968150;28;20031;-77
2023/08/23 05:51:43;;;;;;;14.18;10.15;;;16.20;85.90;;;;;;4966685;28;20065;-77
2023/08/23 05:54:09;;;;;;;17.63;11.73;;;16.20;86.20;;;;;;4955476;28;20141;-78
2023/08/23 05:56:35;;;;;;;15.80;10.77;;;16.30;86.10;;;;;;4957064;28;20027;-77
2023/08/23 05:59:00;;;;;;;16.38;11.00;;;16.50;86.20;;;;;;4962998;28;20046;-77
2023/08/23 06:01:26;;;;;;;19.83;12.73;;;16.50;86.20;;;;;;4958285;28;20041;-78
2023/08/23 06:03:52;;;;;;;19.30;11.15;;;16.60;86.30;;;;;;4966378;28;20628;-77
2023/08/23 06:06:17;;;;;;;17.27;11.32;;;16.60;86.40;;;;;;4962924;28;20469;-77
2023/08/23 06:08:43;;;;;;;20.40;12.02;;;16.60;86.40;;;;;;4961424;28;20480;-77
2023/08/23 06:11:08;;;;;;;16.42;11.52;;;16.70;86.30;;;;;;4959986;28;20121;-77
2023/08/23 06:13:34;;;;;;;15.48;10.40;;;16.70;86.40;;;;;;4953041;28;20035;-77
2023/08/23 06:16:00;;;;;;;16.58;12.23;;;16.80;86.50;;;;;;4967737;28;20085;-77
2023/08/23 06:18:26;;;;;;;17.83;12.27;;;16.80;86.50;;;;;;4949033;28;20051;-78
2023/08/23 06:20:51;;;;;;;19.65;12.68;;;17.00;86.30;;;;;;4941639;28;20027;-77
2023/08/23 06:23:17;;;;;;;20.92;12.82;;;17.00;86.10;;;;;;4979949;28;20043;-77
2023/08/23 06:25:42;;;;;;;21.30;12.63;;;17.00;86.20;;;;;;4959673;28;20362;-78
2023/08/23 06:28:08;;;;;;;19.13;12.20;;;17.10;86.30;;;;;;4948813;28;20061;-77
2023/08/23 06:30:40;;;;;;;19.85;12.70;;;17.20;86.30;;;;;;4946467;28;20404;-77
2023/08/23 06:33:08;;;;;;;19.58;11.38;;;17.30;85.80;;;;;;4948247;28;20106;-77
2023/08/23 06:35:33;;;;;;;21.00;12.30;;;17.40;85.80;;;;;;4950110;28;20078;-77
2023/08/23 06:37:59;;;;;;;19.83;11.68;;;17.50;85.60;;;;;;4947794;28;20043;-78
2023/08/23 06:40:25;;;;;;;21.15;11.77;;;17.60;85.50;;;;;;4952100;28;20458;-78
2023/08/23 06:42:50;;;;;;;20.60;11.43;;;17.70;85.40;;;;;;4940418;28;20032;-77
2023/08/23 06:45:16;;;;;;;17.83;11.35;;;17.80;85.10;;;;;;4947477;28;20480;-78
2023/08/23 06:47:42;;;;;;;19.08;12.75;;;18.00;85.00;;;;;;4946700;28;20047;-78
2023/08/23 06:50:08;;;;;;;20.63;11.55;;;18.10;84.90;;;;;;4950708;28;20030;-78
2023/08/23 06:52:33;;;;;;;17.75;11.45;;;18.20;84.70;;;;;;4949586;28;20046;-78
2023/08/23 06:54:59;;;;;;;20.55;12.70;;;18.30;84.80;;;;;;4972978;28;20030;-78
2023/08/23 06:57:28;;;;;;;21.00;11.55;;;18.40;84.70;;;;;;4961715;28;20039;-78
2023/08/23 06:59:58;;;;;;;18.75;10.75;;;18.60;84.40;;;;;;4960391;28;20110;-78
2023/08/23 07:02:25;;;;;;;17.45;11.52;;;18.70;84.10;;;;;;4952178;28;20044;-79
2023/08/23 07:04:52;;;;;;;16.90;11.60;;;18.80;83.50;;;;;;4949222;28;20030;-78
2023/08/23 07:07:21;;;;;;;21.73;11.65;;;19.00;83.40;;;;;;4955180;28;20042;-77
2023/08/23 07:09:47;;;;;;;19.30;12.48;;;19.10;83.20;;;;;;4952572;28;20035;-78
2023/08/23 07:12:12;;;;;;;21.27;11.95;;;19.20;82.70;;;;;;4946712;28;20078;-79
2023/08/23 07:14:38;;;;;;;19.40;12.10;;;19.40;82.60;;;;;;4947872;28;20051;-79
2023/08/23 07:17:04;;;;;;;16.15;11.05;;;19.50;82.10;;;;;;4946554;28;20028;-79
2023/08/23 07:19:30;;;;;;;21.55;11.82;;;19.60;82.70;;;;;;4965162;28;20084;-79
2023/08/23 07:21:58;;;;;;;20.13;12.35;;;19.80;81.90;;;;;;4964729;28;20032;-79
2023/08/23 07:24:23;;;;;;;17.63;11.05;;;20.00;81.60;;;;;;4942529;28;20043;-79
2023/08/23 07:26:49;;;;;;;18.92;10.65;;;20.20;81.10;;;;;;4939463;28;20122;-79
2023/08/23 07:29:15;;;;;;;22.55;11.60;;;20.30;80.40;;;;;;4935840;28;20452;-79
2023/08/23 07:31:42;;;;;;;20.15;10.77;;;20.40;80.90;;;;;;4937393;28;20020;-79
2023/08/23 07:34:07;;;;;;;24.80;11.13;;;20.60;80.00;;;;;;4941367;28;20345;-79
2023/08/23 07:36:33;;;;;;;17.67;11.07;;;20.80;79.40;;;;;;4942818;28;20122;-79
2023/08/23 07:38:59;;;;;;;23.77;11.27;;;20.90;79.60;;;;;;4953458;28;20568;-79
2023/08/23 07:41:24;;;;;;;17.83;10.75;;;21.10;79.20;;;;;;4949544;28;20034;-79
2023/08/23 07:43:50;;;;;;;17.40;10.05;;;21.10;78.90;;;;;;4952478;28;20035;-79
2023/08/23 07:46:16;;;;;;;18.23;10.68;;;21.30;78.40;;;;;;4947407;28;20034;-79
2023/08/23 07:48:41;;;;;;;20.88;12.73;;;21.50;78.30;;;;;;4952878;28;20047;-79
2023/08/23 07:51:07;;;;;;;19.25;11.82;;;21.60;78.10;;;;;;4958861;28;20587;-79
2023/08/23 07:53:33;;;;;;;19.48;10.25;;;21.70;77.00;;;;;;4957111;28;20035;-78
2023/08/23 07:55:59;;;;;;;23.13;10.40;;;21.90;77.00;;;;;;4956529;28;20031;-78
2023/08/23 07:58:25;;;;;;;16.48;10.18;;;22.10;76.50;;;;;;4960771;28;20370;-78
2023/08/23 08:00:51;;;;;;;17.13;9.40;;;22.10;75.40;;;;;;4958798;28;20023;-78
2023/08/23 08:03:17;;;;;;;22.63;10.88;;;22.30;75.80;;;;;;4958379;28;20086;-79
2023/08/23 08:05:43;;;;;;;16.00;9.88;;;22.30;75.10;;;;;;4947329;28;20035;-79
2023/08/23 08:08:09;;;;;;;16.63;10.05;;;22.50;75.00;;;;;;4939532;28;20047;-78
2023/08/23 08:10:34;;;;;;;13.43;8.82;;;22.40;75.30;;;;;;4939316;28;20031;-79
2023/08/23 08:13:00;;;;;;;15.77;9.63;;;22.60;75.30;;;;;;4941767;28;20486;-78
2023/08/23 08:15:26;;;;;;;19.25;9.63;;;22.60;74.80;;;;;;4941628;28;20024;-79
2023/08/23 08:17:52;;;;;;;16.05;9.05;;;22.60;74.90;;;;;;4942930;28;20105;-77
2023/08/23 08:20:23;;;;;;;14.90;7.93;;;22.40;74.00;;;;;;4943617;28;20019;-78
2023/08/23 08:22:49;;;;;;;14.75;10.00;;;22.50;75.20;;;;;;4941807;28;20078;-78
2023/08/23 08:25:14;;;;;;;18.35;9.95;;;22.50;75.20;;;;;;4945845;28;20058;-78
2023/08/23 08:27:40;;;;;;;16.50;10.43;;;22.30;75.60;;;;;;4949224;28;20043;-78
2023/08/23 08:30:06;;;;;;;16.30;10.52;;;22.40;75.50;;;;;;4960079;28;20033;-78
2023/08/23 08:32:32;;;;;;;17.90;10.65;;;22.60;76.00;;;;;;4965505;28;20042;-78
2023/08/23 08:34:58;;;;;;;19.05;10.90;;;22.70;75.30;;;;;;4965241;28;20058;-78
2023/08/23 08:37:25;;;;;;;16.10;8.82;;;22.80;73.60;;;;;;4962674;28;20062;-80
2023/08/23 08:39:50;;;;;;;17.90;10.45;;;23.10;74.30;;;;;;4970348;28;20031;-80
2023/08/23 08:42:17;;;;;;;14.35;9.25;;;23.10;72.80;;;;;;4966863;28;20046;-79
2023/08/23 08:44:44;;;;;;;14.85;9.55;;;23.30;72.40;;;;;;4949996;28;20044;-78
2023/08/23 08:47:10;;;;;;;16.60;9.48;;;23.20;73.10;;;;;;4946524;28;20035;-79
2023/08/23 08:49:36;;;;;;;13.60;8.98;;;23.10;72.90;;;;;;4964097;28;20451;-79
2023/08/23 08:52:04;;;;;;;17.88;10.13;;;23.40;72.00;;;;;;4970089;28;20039;-79
2023/08/23 08:54:31;;;;;;;19.75;9.25;;;23.50;72.20;;;;;;4963536;28;20034;-78
2023/08/23 08:56:57;;;;;;;13.50;10.07;;;23.40;72.10;;;;;;4976234;28;20114;-79
2023/08/23 08:59:23;;;;;;;13.93;9.98;;;23.60;72.20;;;;;;4947318;28;20505;-78
2023/08/23 09:01:50;;;;;;;19.17;10.10;;;23.90;71.70;;;;;;4970392;28;20034;-77
2023/08/23 09:04:16;;;;;;;18.02;11.95;;;24.20;69.80;;;;;;4975209;28;20039;-78
2023/08/23 09:06:45;;;;;;;18.90;10.52;;;24.40;68.60;;;;;;4977193;28;20045;-78
2023/08/23 09:09:11;;;;;;;17.92;11.27;;;24.40;70.30;;;;;;4972048;28;20035;-79
2023/08/23 09:11:37;;;;;;;18.98;10.75;;;24.20;69.50;;;;;;4977608;28;20023;-78
2023/08/23 09:14:16;;;;;;;17.80;11.77;;;24.10;69.90;;;;;;4968039;28;20036;-78
2023/08/23 09:16:43;;;;;;;15.85;9.45;;;24.30;70.20;;;;;;4948703;28;20039;-78
2023/08/23 09:19:11;;;;;;;18.90;10.73;;;24.40;68.30;;;;;;4952505;28;20405;-79
2023/08/23 09:21:44;;;;;;;18.92;11.57;;;24.30;69.40;;;;;;4959163;28;20031;-79
2023/08/23 09:24:11;;;;;;;19.75;10.65;;;24.60;69.70;;;;;;4947400;28;20066;-79
2023/08/23 09:26:37;;;;;;;18.25;10.52;;;25.00;68.70;;;;;;4959144;28;20511;-79
2023/08/23 09:29:03;;;;;;;16.75;9.27;;;25.20;65.90;;;;;;4960269;28;20515;-78
2023/08/23 09:31:29;;;;;;;15.43;9.38;;;25.30;66.90;;;;;;4959379;28;20035;-79
2023/08/23 09:33:55;;;;;;;14.30;9.77;;;25.60;66.30;;;;;;4954038;28;20104;-78
2023/08/23 09:36:27;;;;;;;14.02;9.77;;;25.60;65.60;;;;;;4960880;28;20027;-79
2023/08/23 09:38:54;;;;;;;14.75;9.13;;;25.60;65.90;;;;;;4953668;28;20039;-80
2023/08/23 09:41:21;;;;;;;14.82;9.10;;;25.80;64.90;;;;;;4957648;28;20106;-79
2023/08/23 09:43:51;;;;;;;15.00;8.75;;;26.00;64.30;;;;;;4960562;28;20042;-78
2023/08/23 09:46:19;;;;;;;15.63;9.35;;;26.20;64.10;;;;;;4965943;28;20033;-79
2023/08/23 09:48:46;;;;;;;13.60;8.60;;;26.40;62.70;;;;;;4965146;28;20134;-79
2023/08/23 09:51:13;;;;;;;14.27;9.57;;;26.40;62.80;;;;;;4967144;28;20027;-78
2023/08/23 09:53:42;;;;;;;18.63;10.98;;;26.40;63.70;;;;;;4982333;28;20035;-79
2023/08/23 09:56:09;;;;;;;16.10;8.98;;;26.10;62.90;;;;;;4947713;28;20031;-78
2023/08/23 09:58:36;;;;;;;15.00;10.30;;;26.00;63.90;;;;;;4952602;28;20034;-77
2023/08/23 10:01:02;;;;;;;15.68;9.48;;;25.90;63.10;;;;;;4964959;28;20059;-78
2023/08/23 10:03:29;;;;;;;15.43;9.43;;;26.10;63.30;;;;;;4954396;28;20043;-78
2023/08/23 10:05:55;;;;;;;15.98;10.10;;;25.80;63.60;;;;;;4947134;28;20035;-78
2023/08/23 10:08:23;;;;;;;18.30;9.77;;;25.60;63.50;;;;;;4943242;28;20118;-78
2023/08/23 10:10:53;;;;;;;14.70;8.75;;;25.30;64.70;;;;;;4940716;28;20102;-78
2023/08/23 10:13:20;;;;;;;15.65;9.73;;;25.10;66.50;;;;;;4945316;28;20105;-79
2023/08/23 10:15:48;;;;;;;15.50;9.20;;;25.20;65.10;;;;;;4948477;28;20481;-79
2023/08/23 10:18:15;;;;;;;14.38;8.60;;;25.60;65.40;;;;;;4956143;28;20050;-79
2023/08/23 10:20:41;;;;;;;16.20;9.27;;;25.90;64.10;;;;;;4988669;28;20070;-79
2023/08/23 10:23:18;;;;;;;14.23;9.25;;;26.10;62.60;;;;;;4978893;28;20470;-79
2023/08/23 10:25:46;;;;;;;14.73;9.50;;;26.00;62.40;;;;;;4951887;28;20460;-78
2023/08/23 10:28:18;;;;;;;17.67;8.65;;;25.80;62.90;;;;;;4945503;28;20039;-78
2023/08/23 10:30:46;;;;;;;14.25;8.82;;;26.30;62.90;;;;;;4960202;28;20030;-78
2023/08/23 10:33:17;;;;;;;11.50;7.35;;;26.40;61.50;;;;;;4958309;28;20074;-78
2023/08/23 10:35:44;;;;;;;15.05;8.13;;;26.50;59.90;;;;;;4968658;28;20648;-78
2023/08/23 10:38:10;;;;;;;12.70;6.53;;;26.50;60.70;;;;;;4954984;28;20032;-77
2023/08/23 10:40:38;;;;;;;11.35;7.18;;;26.80;59.50;;;;;;4967199;28;20118;-78
2023/08/23 10:43:15;;;;;;;10.00;6.00;;;26.80;57.40;;;;;;4952919;28;20386;-78
2023/08/23 10:45:51;;;;;;;13.93;6.88;;;27.00;58.30;;;;;;4947958;28;20019;-78
2023/08/23 10:48:22;;;;;;;11.68;6.13;;;27.30;56.70;;;;;;4943176;28;20051;-79
2023/08/23 10:50:48;;;;;;;13.93;6.82;;;27.50;57.20;;;;;;4960042;28;20355;-78
2023/08/23 10:53:16;;;;;;;10.93;6.13;;;27.60;55.50;;;;;;4945766;28;20522;-78
2023/08/23 10:55:42;;;;;;;13.13;6.53;;;27.50;56.60;;;;;;4960219;28;20065;-78
2023/08/23 10:58:07;;;;;;;12.27;7.25;;;27.10;55.40;;;;;;4948598;28;20481;-77
2023/08/23 11:00:33;;;;;;;13.07;5.90;;;26.90;57.00;;;;;;4950896;28;20027;-78
2023/08/23 11:02:59;;;;;;;11.55;5.82;;;26.90;58.50;;;;;;4948979;28;20039;-78
2023/08/23 11:05:24;;;;;;;13.35;6.65;;;26.90;56.70;;;;;;4948909;28;20019;-78
2023/08/23 11:07:51;;;;;;;12.80;6.35;;;26.60;55.70;;;;;;4950742;28;20075;-79
2023/08/23 11:10:18;;;;;;;11.32;6.13;;;26.60;56.20;;;;;;4941842;28;20596;-77
2023/08/23 11:12:44;;;;;;;9.70;5.55;;;26.30;56.10;;;;;;4945553;28;20035;-77
2023/08/23 11:15:10;;;;;;;10.50;5.30;;;26.60;55.40;;;;;;4968521;28;20056;-78
2023/08/23 11:17:37;;;;;;;14.00;5.45;;;26.70;54.50;;;;;;4955754;28;20088;-77
2023/08/23 11:20:03;;;;;;;11.07;5.65;;;26.80;54.40;;;;;;4941310;28;20447;-78
2023/08/23 11:22:29;;;;;;;14.70;6.65;;;26.80;52.80;;;;;;4942775;28;20395;-80
2023/08/23 11:24:57;;;;;;;9.40;5.07;;;26.90;53.20;;;;;;4952582;28;20019;-78
2023/08/23 11:27:22;;;;;;;11.88;5.32;;;27.10;54.10;;;;;;4940895;28;20063;-79
2023/08/23 11:29:48;;;;;;;10.88;5.57;;;27.10;53.50;;;;;;4944280;28;20028;-79
2023/08/23 11:32:16;;;;;;;14.43;5.90;;;27.00;55.00;;;;;;4943465;28;20044;-76
2023/08/23 11:34:42;;;;;;;12.20;5.57;;;27.10;51.70;;;;;;4962925;28;20038;-79
2023/08/23 11:37:08;;;;;;;10.27;5.30;;;27.20;53.00;;;;;;4952885;28;20101;-80
2023/08/23 11:39:34;;;;;;;9.60;5.15;;;27.10;53.00;;;;;;4959513;28;20085;-79
2023/08/23 11:42:00;;;;;;;10.13;4.47;;;27.60;49.70;;;;;;4959960;28;20058;-79
2023/08/23 11:44:27;;;;;;;8.90;4.38;;;27.70;50.80;;;;;;4941666;28;20093;-79
2023/08/23 11:46:56;;;;;;;10.73;5.22;;;27.80;50.40;;;;;;4946789;28;20054;-79
2023/08/23 11:49:23;;;;;;;10.40;5.05;;;27.70;51.20;;;;;;4936326;28;20675;-79
2023/08/23 11:51:49;;;;;;;13.77;5.85;;;27.80;50.20;;;;;;4946571;28;20081;-79
2023/08/23 11:54:16;;;;;;;10.32;5.63;;;28.00;48.70;;;;;;4959556;28;20035;-79
2023/08/23 11:56:45;;;;;;;11.10;4.75;;;28.20;48.60;;;;;;4963408;28;20035;-79
2023/08/23 11:59:12;;;;;;;11.10;4.18;;;28.30;46.90;;;;;;4959023;28;20039;-79
2023/08/23 12:01:38;;;;;;;10.57;4.65;;;28.50;49.00;;;;;;4959371;28;20034;-79
2023/08/23 12:04:06;;;;;;;11.75;4.53;;;28.60;47.70;;;;;;5016132;28;20446;-79
2023/08/23 12:06:32;;;;;;;10.10;5.18;;;28.80;47.40;;;;;;5043618;28;20386;-79
2023/08/23 12:08:58;;;;;;;12.00;4.88;;;28.40;47.30;;;;;;4981913;28;20055;-79
2023/08/23 12:11:24;;;;;;;10.75;3.95;;;28.60;46.90;;;;;;4950335;28;20027;-78
2023/08/23 12:13:49;;;;;;;9.07;4.28;;;28.70;44.30;;;;;;4961582;28;20133;-78
2023/08/23 12:16:15;;;;;;;8.95;3.80;;;28.60;41.40;;;;;;4967558;28;20081;-78
2023/08/23 12:18:41;;;;;;;9.27;4.07;;;28.70;41.80;;;;;;4948384;28;20092;-78
2023/08/23 12:21:07;;;;;;;7.80;4.30;;;29.00;40.90;;;;;;4952577;28;20073;-78
2023/08/23 12:23:32;;;;;;;9.23;4.63;;;29.00;42.40;;;;;;4945540;28;20081;-79
2023/08/23 12:25:58;;;;;;;9.88;4.50;;;28.90;42.30;;;;;;4954817;28;20038;-78
2023/08/23 12:28:24;;;;;;;10.50;5.10;;;29.00;44.20;;;;;;4950456;28;20055;-78
2023/08/23 12:30:50;;;;;;;11.07;5.15;;;29.20;45.10;;;;;;4966474;28;20089;-77